createdAt,value
2022-12-25T00:01:23.663Z,8.93
2022-12-25T00:03:51.502Z,6.18
2022-12-25T00:06:18.972Z,5.65
2022-12-25T00:08:46.078Z,4.90
2022-12-25T00:11:16.058Z,5.37
2022-12-25T00:13:43.383Z,5.65
2022-12-25T00:16:15.133Z,5.30
2022-12-25T00:18:43.783Z,5.32
2022-12-25T00:21:11.421Z,5.32
2022-12-25T00:23:38.550Z,5.20
2022-12-25T00:26:07.657Z,5.50
2022-12-25T00:28:36.130Z,5.80
2022-12-25T00:31:08.482Z,6.55
2022-12-25T00:33:37.250Z,5.43
2022-12-25T00:36:06.378Z,6.65
2022-12-25T00:38:35.451Z,6.12
2022-12-25T00:41:11.610Z,6.62
2022-12-25T00:43:39.701Z,4.85
2022-12-25T00:46:07.699Z,5.05
2022-12-25T00:48:35.778Z,4.28
2022-12-25T00:51:05.803Z,4.75
2022-12-25T00:53:33.349Z,5.03
2022-12-25T00:56:05.281Z,4.30
2022-12-25T00:58:33.897Z,4.00
2022-12-25T01:01:01.229Z,4.65
2022-12-25T01:03:28.427Z,5.22
2022-12-25T01:06:00.914Z,4.95
2022-12-25T01:08:30.045Z,4.40
2022-12-25T01:10:59.343Z,4.87
2022-12-25T01:13:27.910Z,5.78
2022-12-25T01:15:55.099Z,5.03
2022-12-25T01:18:23.570Z,5.80
2022-12-25T01:20:50.851Z,5.53
2022-12-25T01:23:18.009Z,5.55
2022-12-25T01:25:45.969Z,4.90
2022-12-25T01:28:13.421Z,5.30
2022-12-25T01:30:40.636Z,4.20
2022-12-25T01:33:08.106Z,5.70
2022-12-25T01:35:35.260Z,7.22
2022-12-25T01:38:02.398Z,7.57
2022-12-25T01:40:29.825Z,5.80
2022-12-25T01:42:58.276Z,5.25
2022-12-25T01:45:41.010Z,4.35
2022-12-25T01:48:13.491Z,3.10
2022-12-25T01:50:44.667Z,4.00
2022-12-25T01:53:12.229Z,3.20
2022-12-25T01:55:40.315Z,3.15
2022-12-25T01:58:07.566Z,3.45
2022-12-25T02:00:35.035Z,3.45
2022-12-25T02:03:02.497Z,3.60
2022-12-25T02:05:32.196Z,3.53
2022-12-25T02:08:02.483Z,3.53
2022-12-25T02:10:30.061Z,2.85
2022-12-25T02:12:57.264Z,3.17
2022-12-25T02:15:30.177Z,3.30
2022-12-25T02:18:22.356Z,2.42
2022-12-25T02:21:08.376Z,2.92
2022-12-25T02:23:45.367Z,2.40
2022-12-25T02:26:24.548Z,2.80
2022-12-25T02:29:17.396Z,2.67
2022-12-25T02:31:48.737Z,2.65
2022-12-25T02:34:22.044Z,2.67
2022-12-25T02:36:58.149Z,2.75
2022-12-25T02:39:46.701Z,3.10
2022-12-25T02:42:19.597Z,3.17
2022-12-25T02:45:08.249Z,2.17
2022-12-25T02:47:54.952Z,3.80
2022-12-25T02:50:41.717Z,3.05
2022-12-25T02:53:27.939Z,4.03
2022-12-25T02:56:14.646Z,3.15
2022-12-25T02:59:01.426Z,5.40
2022-12-25T03:01:48.546Z,5.75
2022-12-25T03:04:37.552Z,5.53
2022-12-25T03:07:15.445Z,4.30
2022-12-25T03:10:06.374Z,4.65
2022-12-25T03:12:56.786Z,4.05
2022-12-25T03:15:42.516Z,3.65
2022-12-25T03:18:15.491Z,3.50
2022-12-25T03:21:01.363Z,4.00
2022-12-25T03:23:50.311Z,5.07
2022-12-25T03:26:36.715Z,3.65
2022-12-25T03:29:04.176Z,3.50
2022-12-25T03:31:37.049Z,3.45
2022-12-25T03:34:48.095Z,4.10
2022-12-25T03:37:30.035Z,4.50
2022-12-25T03:40:26.747Z,3.40
2022-12-25T03:43:17.142Z,3.78
2022-12-25T03:46:08.700Z,3.65
2022-12-25T03:48:59.602Z,3.65
2022-12-25T03:51:49.786Z,3.72
2022-12-25T03:54:38.220Z,4.00
2022-12-25T03:57:24.675Z,3.67
2022-12-25T04:00:10.576Z,4.07
2022-12-25T04:02:56.876Z,3.87
2022-12-25T04:05:42.765Z,3.67
2022-12-25T04:08:28.783Z,3.70
2022-12-25T04:11:14.282Z,3.83
2022-12-25T04:14:00.282Z,3.72
2022-12-25T04:16:45.728Z,3.92
2022-12-25T04:19:31.656Z,3.53
2022-12-25T04:22:17.090Z,3.37
2022-12-25T04:25:03.016Z,4.70
2022-12-25T04:27:49.536Z,3.60
2022-12-25T04:30:35.572Z,4.22
2022-12-25T04:33:21.244Z,4.12
2022-12-25T04:36:07.749Z,3.83
2022-12-25T04:38:35.429Z,3.35
2022-12-25T04:41:03.092Z,3.42
2022-12-25T04:43:30.470Z,3.70
2022-12-25T04:45:59.584Z,3.60
2022-12-25T04:48:27.733Z,3.10
2022-12-25T04:50:55.116Z,3.05
2022-12-25T04:53:22.687Z,2.97
2022-12-25T04:55:50.158Z,3.80
2022-12-25T04:58:17.303Z,3.03
2022-12-25T05:00:44.432Z,2.95
2022-12-25T05:03:11.983Z,3.60
2022-12-25T05:05:40.623Z,3.30
2022-12-25T05:08:07.864Z,2.90
2022-12-25T05:10:35.323Z,3.22
2022-12-25T05:13:02.441Z,3.90
2022-12-25T05:15:29.527Z,3.42
2022-12-25T05:17:56.981Z,4.50
2022-12-25T05:20:24.238Z,4.22
2022-12-25T05:22:51.308Z,5.82
2022-12-25T05:25:18.641Z,3.70
2022-12-25T05:27:50.311Z,3.60
2022-12-25T05:30:21.300Z,5.07
2022-12-25T05:32:48.684Z,3.47
2022-12-25T05:35:15.891Z,3.67
2022-12-25T05:37:43.330Z,4.57
2022-12-25T05:40:11.006Z,3.83
2022-12-25T05:42:38.142Z,5.03
2022-12-25T05:45:06.157Z,4.80
2022-12-25T05:47:33.306Z,5.03
2022-12-25T05:50:00.421Z,4.95
2022-12-25T05:52:32.028Z,4.82
2022-12-25T05:54:59.931Z,7.20
2022-12-25T05:57:31.536Z,5.55
2022-12-25T05:59:59.066Z,13.95
2022-12-25T06:02:26.567Z,7.30
2022-12-25T06:04:54.105Z,7.20
2022-12-25T06:07:21.356Z,6.15
2022-12-25T06:09:48.678Z,5.65
2022-12-25T06:12:16.163Z,5.72
2022-12-25T06:14:43.314Z,6.12
2022-12-25T06:17:10.594Z,5.00
2022-12-25T06:19:38.159Z,10.35
2022-12-25T06:22:05.312Z,11.07
2022-12-25T06:24:32.565Z,13.23
2022-12-25T06:27:00.031Z,23.75
2022-12-25T06:29:27.142Z,11.50
2022-12-25T06:31:57.282Z,5.80
2022-12-25T06:34:24.920Z,5.03
2022-12-25T06:36:52.088Z,5.15
2022-12-25T06:39:19.472Z,8.02
2022-12-25T06:41:47.695Z,10.38
2022-12-25T06:44:14.764Z,13.88
2022-12-25T06:46:41.956Z,7.85
2022-12-25T06:49:10.083Z,11.00
2022-12-25T06:51:37.259Z,8.55
2022-12-25T06:54:04.678Z,9.68
2022-12-25T06:56:32.850Z,7.47
2022-12-25T06:59:10.081Z,8.38
2022-12-25T07:01:56.892Z,6.55
2022-12-25T07:04:35.631Z,7.18
2022-12-25T07:07:08.431Z,8.32
2022-12-25T07:09:36.386Z,6.80
2022-12-25T07:12:24.298Z,8.68
2022-12-25T07:14:54.112Z,11.05
2022-12-25T07:17:22.295Z,8.48
2022-12-25T07:19:49.423Z,13.07
2022-12-25T07:22:17.020Z,18.70
2022-12-25T07:24:44.408Z,19.37
2022-12-25T07:27:11.508Z,32.55
2022-12-25T07:29:38.631Z,23.42
2022-12-25T07:32:06.159Z,15.32
2022-12-25T07:34:33.417Z,17.27
2022-12-25T07:37:00.507Z,15.77
2022-12-25T07:39:27.993Z,20.55
2022-12-25T07:41:55.123Z,18.75
2022-12-25T07:44:22.233Z,24.37
2022-12-25T07:46:49.566Z,28.83
2022-12-25T07:49:16.628Z,38.28
2022-12-25T07:51:43.712Z,86.32
2022-12-25T07:54:11.071Z,38.13
2022-12-25T07:56:38.200Z,22.08
2022-12-25T07:59:05.263Z,21.60
2022-12-25T08:01:32.763Z,10.20
2022-12-25T08:04:01.865Z,13.93
2022-12-25T08:06:34.564Z,11.27
2022-12-25T08:09:07.627Z,17.20
2022-12-25T08:11:34.855Z,13.38
2022-12-25T08:14:02.337Z,7.47
2022-12-25T08:16:29.464Z,8.10
2022-12-25T08:18:56.533Z,7.35
2022-12-25T08:21:23.922Z,9.02
2022-12-25T08:23:51.086Z,9.07
2022-12-25T08:26:23.709Z,8.02
2022-12-25T08:28:51.380Z,8.40
2022-12-25T08:31:26.350Z,10.02
2022-12-25T08:33:55.543Z,9.40
2022-12-25T08:36:23.015Z,7.62
2022-12-25T08:38:50.284Z,6.40
2022-12-25T08:41:18.118Z,6.45
2022-12-25T08:43:46.775Z,8.18
2022-12-25T08:46:14.212Z,10.80
2022-12-25T08:48:43.591Z,10.90
2022-12-25T08:51:17.128Z,11.52
2022-12-25T08:53:45.703Z,12.23
2022-12-25T08:56:13.360Z,13.52
2022-12-25T08:58:40.729Z,14.65
2022-12-25T09:01:08.261Z,13.90
2022-12-25T09:03:35.708Z,11.98
2022-12-25T09:06:04.716Z,10.93
2022-12-25T09:08:32.389Z,7.28
2022-12-25T09:11:04.326Z,7.25
2022-12-25T09:13:31.678Z,5.95
2022-12-25T09:15:58.854Z,7.30
2022-12-25T09:18:26.351Z,6.43
2022-12-25T09:21:01.185Z,4.60
2022-12-25T09:23:28.734Z,3.90
2022-12-25T09:25:59.084Z,5.78
2022-12-25T09:28:26.256Z,6.68
2022-12-25T09:30:53.690Z,8.40
2022-12-25T09:33:21.814Z,7.32
2022-12-25T09:35:56.599Z,6.95
2022-12-25T09:38:24.574Z,5.75
2022-12-25T09:41:21.092Z,11.43
2022-12-25T09:43:56.568Z,9.27
2022-12-25T09:46:30.196Z,7.70
2022-12-25T09:49:13.199Z,5.40
2022-12-25T09:51:41.118Z,5.37
2022-12-25T09:54:19.984Z,5.35
2022-12-25T09:56:48.192Z,6.25
2022-12-25T09:59:25.499Z,4.75
2022-12-25T10:02:07.831Z,5.18
2022-12-25T10:05:09.770Z,6.50
2022-12-25T10:08:02.541Z,4.72
2022-12-25T10:10:35.676Z,5.28
2022-12-25T10:13:07.800Z,6.53
2022-12-25T10:15:48.030Z,6.03
2022-12-25T10:18:31.184Z,5.35
2022-12-25T10:21:00.943Z,5.25
2022-12-25T10:23:33.078Z,5.43
2022-12-25T10:26:00.739Z,5.80
2022-12-25T10:28:38.856Z,4.43
2022-12-25T10:31:21.122Z,4.55
2022-12-25T10:33:52.867Z,5.05
2022-12-25T10:36:30.621Z,5.70
2022-12-25T10:38:58.039Z,5.65
2022-12-25T10:41:35.560Z,5.30
2022-12-25T10:44:21.753Z,4.80
2022-12-25T10:46:54.712Z,4.97
2022-12-25T10:49:24.122Z,4.87
2022-12-25T10:51:52.121Z,5.55
2022-12-25T10:54:35.174Z,5.22
2022-12-25T10:57:04.108Z,4.10
2022-12-25T10:59:41.948Z,3.58
2022-12-25T11:02:24.166Z,4.10
2022-12-25T11:04:58.140Z,3.90
2022-12-25T11:09:59.299Z,16.77
2022-12-25T11:12:36.688Z,4.18
2022-12-25T11:15:26.359Z,4.15
2022-12-25T11:17:53.792Z,3.53
2022-12-25T11:20:21.768Z,3.85
2022-12-25T11:22:50.095Z,4.43
2022-12-25T11:25:26.231Z,3.87
2022-12-25T11:28:01.587Z,4.72
2022-12-25T11:30:30.280Z,6.72
2022-12-25T11:33:10.878Z,4.57
2022-12-25T11:35:52.898Z,3.40
2022-12-25T11:38:20.064Z,4.12
2022-12-25T11:40:52.721Z,4.78
2022-12-25T11:43:42.180Z,5.60
2022-12-25T11:46:32.943Z,5.55
2022-12-25T11:49:01.770Z,5.55
2022-12-25T11:51:33.764Z,5.62
2022-12-25T11:54:07.981Z,4.22
2022-12-25T11:56:36.985Z,4.18
2022-12-25T11:59:18.775Z,2.75
2022-12-25T12:01:52.005Z,2.53
2022-12-25T12:04:30.867Z,2.70
2022-12-25T12:07:05.315Z,3.78
2022-12-25T12:09:56.694Z,2.83
2022-12-25T12:12:38.195Z,2.17
2022-12-25T12:15:40.121Z,2.60
2022-12-25T12:18:22.117Z,2.40
2022-12-25T12:21:09.973Z,2.45
2022-12-25T12:24:06.573Z,4.30
2022-12-25T12:26:38.007Z,5.43
2022-12-25T12:29:07.903Z,5.70
2022-12-25T12:31:41.785Z,4.40
2022-12-25T12:34:27.869Z,4.87
2022-12-25T12:37:19.997Z,5.10
2022-12-25T12:39:54.370Z,6.00
2022-12-25T12:42:30.752Z,7.50
2022-12-25T12:45:09.819Z,9.35
2022-12-25T12:47:48.266Z,9.60
2022-12-25T12:50:30.638Z,7.95
2022-12-25T12:52:58.561Z,12.13
2022-12-25T12:55:34.140Z,10.52
2022-12-25T12:58:06.065Z,8.50
2022-12-25T13:00:40.134Z,9.35
2022-12-25T13:03:10.204Z,9.00
2022-12-25T13:05:46.087Z,10.13
2022-12-25T13:08:25.683Z,13.50
2022-12-25T13:11:24.365Z,10.40
2022-12-25T13:13:54.246Z,11.15
2022-12-25T13:16:24.446Z,9.50
2022-12-25T13:18:52.937Z,10.63
2022-12-25T13:21:28.481Z,10.15
2022-12-25T13:24:04.829Z,9.00
2022-12-25T13:26:32.013Z,10.77
2022-12-25T13:28:59.538Z,9.93
2022-12-25T13:31:28.734Z,9.60
2022-12-25T13:34:03.161Z,12.68
2022-12-25T13:36:35.866Z,12.07
2022-12-25T13:39:03.784Z,11.05
2022-12-25T13:41:55.423Z,15.63
2022-12-25T13:44:25.189Z,13.57
2022-12-25T13:46:52.884Z,19.87
2022-12-25T13:49:22.481Z,21.83
2022-12-25T13:51:50.425Z,19.35
2022-12-25T13:54:18.699Z,11.02
2022-12-25T13:56:51.126Z,13.88
2022-12-25T13:59:21.334Z,11.93
2022-12-25T14:01:49.903Z,11.27
2022-12-25T14:04:20.453Z,11.80
2022-12-25T14:06:51.673Z,6.95
2022-12-25T14:09:19.558Z,6.05
2022-12-25T14:11:50.519Z,6.50
2022-12-25T14:14:21.551Z,8.63
2022-12-25T14:16:50.356Z,8.88
2022-12-25T14:19:30.617Z,8.20
2022-12-25T14:21:58.055Z,8.63
2022-12-25T14:24:27.286Z,8.57
2022-12-25T14:27:00.348Z,11.05
2022-12-25T14:29:32.697Z,14.02
2022-12-25T14:32:04.056Z,11.90
2022-12-25T14:34:32.389Z,12.73
2022-12-25T14:37:00.686Z,15.70
2022-12-25T14:39:35.296Z,17.27
2022-12-25T14:42:22.258Z,15.50
2022-12-25T14:45:20.834Z,11.95
2022-12-25T14:47:56.309Z,13.70
2022-12-25T14:50:30.620Z,12.52
2022-12-25T14:52:59.083Z,11.68
2022-12-25T14:55:28.428Z,12.68
2022-12-25T14:58:06.242Z,11.70
2022-12-25T15:00:38.207Z,18.70
2022-12-25T15:03:18.640Z,42.10
2022-12-25T15:05:46.104Z,12.90
2022-12-25T15:08:23.268Z,26.92
2022-12-25T15:11:00.999Z,24.10
2022-12-25T15:13:30.320Z,17.80
2022-12-25T15:16:12.309Z,25.20
2022-12-25T15:18:44.239Z,21.40
2022-12-25T15:21:23.468Z,14.15
2022-12-25T15:23:50.642Z,14.50
2022-12-25T15:26:18.099Z,21.00
2022-12-25T15:28:45.303Z,24.10
2022-12-25T15:31:22.049Z,19.12
2022-12-25T15:33:55.611Z,13.60
2022-12-25T15:36:23.543Z,18.65
2022-12-25T15:38:51.671Z,19.95
2022-12-25T15:41:48.800Z,18.05
2022-12-25T15:44:16.791Z,13.65
2022-12-25T15:46:46.983Z,13.05
2022-12-25T15:49:15.150Z,22.25
2022-12-25T15:51:43.440Z,22.77
2022-12-25T15:54:11.055Z,23.87
2022-12-25T15:56:50.607Z,33.72
2022-12-25T15:59:19.540Z,44.00
2022-12-25T16:01:49.301Z,46.67
2022-12-25T16:04:16.980Z,45.70
2022-12-25T16:06:44.160Z,52.20
2022-12-25T16:09:11.892Z,55.35
2022-12-25T16:11:39.515Z,46.28
2022-12-25T16:14:07.084Z,30.30
2022-12-25T16:16:34.348Z,32.42
2022-12-25T16:19:01.971Z,38.03
2022-12-25T16:21:34.527Z,33.65
2022-12-25T16:24:01.976Z,35.72
2022-12-25T16:26:30.624Z,39.30
2022-12-25T16:29:01.166Z,33.40
2022-12-25T16:31:31.464Z,30.92
2022-12-25T16:33:58.828Z,30.92
2022-12-25T16:36:27.193Z,36.03
2022-12-25T16:38:54.802Z,52.88
2022-12-25T16:41:22.045Z,53.53
2022-12-25T16:43:51.840Z,25.23
2022-12-25T16:46:22.283Z,40.30
2022-12-25T16:48:49.556Z,35.20
2022-12-25T16:51:19.199Z,34.50
2022-12-25T16:53:47.196Z,43.67
2022-12-25T16:56:20.440Z,40.63
2022-12-25T16:58:48.180Z,29.87
2022-12-25T17:01:17.570Z,35.22
2022-12-25T17:03:45.457Z,30.85
2022-12-25T17:06:24.300Z,33.53
2022-12-25T17:08:53.058Z,31.17
2022-12-25T17:11:24.374Z,29.67
2022-12-25T17:13:51.658Z,27.00
2022-12-25T17:16:21.204Z,25.98
2022-12-25T17:18:49.637Z,27.98
2022-12-25T17:21:16.793Z,25.08
2022-12-25T17:23:45.092Z,23.65
2022-12-25T17:26:12.614Z,25.08
2022-12-25T17:28:39.796Z,20.42
2022-12-25T17:31:08.950Z,24.27
2022-12-25T17:33:37.879Z,23.65
2022-12-25T17:36:16.176Z,23.05
2022-12-25T17:38:44.540Z,21.95
2022-12-25T17:41:13.219Z,23.35
2022-12-25T17:43:42.091Z,25.37
2022-12-25T17:46:13.173Z,23.50
2022-12-25T17:48:43.389Z,25.03
2022-12-25T17:51:13.527Z,25.85
2022-12-25T17:53:42.839Z,31.33
2022-12-25T17:56:10.542Z,35.70
2022-12-25T17:58:38.351Z,26.02
2022-12-25T18:01:10.863Z,24.63
2022-12-25T18:03:38.707Z,25.42
2022-12-25T18:06:07.586Z,23.27
2022-12-25T18:08:39.272Z,26.73
2022-12-25T18:11:17.965Z,22.87
2022-12-25T18:13:48.414Z,21.35
2022-12-25T18:16:17.203Z,21.67
2022-12-25T18:18:51.508Z,25.45
2022-12-25T18:21:21.422Z,26.25
2022-12-25T18:23:48.886Z,23.92
2022-12-25T18:26:16.208Z,19.90
2022-12-25T18:28:44.022Z,19.52
2022-12-25T18:31:13.977Z,19.30
2022-12-25T18:33:41.757Z,18.25
2022-12-25T18:36:11.376Z,21.75
2022-12-25T18:38:41.696Z,21.73
2022-12-25T18:41:10.446Z,20.80
2022-12-25T18:43:54.413Z,20.25
2022-12-25T18:46:27.367Z,23.25
2022-12-25T18:48:56.015Z,26.58
2022-12-25T18:51:23.569Z,25.40
2022-12-25T18:53:51.288Z,18.70
2022-12-25T18:56:20.098Z,18.58
2022-12-25T18:58:48.070Z,20.17
2022-12-25T19:01:20.892Z,20.27
2022-12-25T19:03:49.370Z,26.83
2022-12-25T19:06:23.958Z,29.55
2022-12-25T19:11:19.353Z,29.00
2022-12-25T19:13:46.584Z,24.75
2022-12-25T19:16:14.352Z,26.33
2022-12-25T19:18:44.438Z,27.60
2022-12-25T19:21:11.815Z,27.33
2022-12-25T19:23:39.352Z,25.77
2022-12-25T19:26:08.181Z,30.58
2022-12-25T19:28:36.200Z,30.20
2022-12-25T19:31:07.428Z,30.23
2022-12-25T19:33:35.908Z,29.08
2022-12-25T19:36:06.249Z,26.23
2022-12-25T19:38:33.430Z,25.92
2022-12-25T19:41:09.615Z,26.67
2022-12-25T19:43:38.946Z,23.35
2022-12-25T19:46:07.724Z,29.75
2022-12-25T19:48:35.030Z,21.27
2022-12-25T19:51:02.549Z,29.42
2022-12-25T19:53:30.076Z,30.88
2022-12-25T19:56:01.347Z,29.73
2022-12-25T19:58:29.736Z,29.17
2022-12-25T20:01:02.027Z,28.90
2022-12-25T20:03:29.570Z,27.92
2022-12-25T20:05:57.254Z,27.37
2022-12-25T20:08:24.857Z,28.45
2022-12-25T20:10:52.524Z,31.92
2022-12-25T20:13:20.193Z,28.80
2022-12-25T20:15:47.505Z,26.33
2022-12-25T20:18:17.832Z,17.75
2022-12-25T20:20:45.113Z,20.02
2022-12-25T20:23:12.297Z,18.85
2022-12-25T20:25:41.436Z,19.92
2022-12-25T20:28:09.303Z,23.08
2022-12-25T20:30:40.010Z,18.60
2022-12-25T20:33:07.555Z,22.23
2022-12-25T20:35:34.752Z,20.73
2022-12-25T20:38:02.026Z,20.92
2022-12-25T20:40:29.492Z,20.27
2022-12-25T20:42:56.752Z,19.98
2022-12-25T20:45:23.916Z,20.67
2022-12-25T20:47:51.392Z,19.75
2022-12-25T20:50:18.559Z,19.42
2022-12-25T20:52:45.720Z,18.80
2022-12-25T20:55:14.191Z,20.73
2022-12-25T20:57:41.355Z,15.98
2022-12-25T21:00:09.076Z,17.98
2022-12-25T21:02:37.960Z,16.67
2022-12-25T21:05:07.099Z,14.60
2022-12-25T21:07:34.281Z,14.32
2022-12-25T21:10:01.782Z,16.45
2022-12-25T21:12:28.932Z,18.40
2022-12-25T21:14:56.152Z,18.23
2022-12-25T21:17:23.639Z,19.00
2022-12-25T21:19:50.808Z,20.65
2022-12-25T21:22:17.988Z,17.27
2022-12-25T21:24:45.434Z,16.00
2022-12-25T21:27:12.575Z,14.40
2022-12-25T21:29:39.730Z,17.87
2022-12-25T21:32:25.774Z,18.00
2022-12-25T21:34:52.933Z,16.98
2022-12-25T21:37:20.472Z,16.52
2022-12-25T21:39:50.739Z,15.32
2022-12-25T21:42:17.874Z,14.90
2022-12-25T21:44:45.784Z,14.95
2022-12-25T21:47:12.962Z,15.95
2022-12-25T21:49:58.781Z,16.50
2022-12-25T21:52:26.229Z,13.82
2022-12-25T21:54:53.402Z,12.70
2022-12-25T21:57:20.587Z,14.43
2022-12-25T21:59:48.211Z,14.05
2022-12-25T22:02:15.379Z,13.43
2022-12-25T22:04:43.028Z,14.68
2022-12-25T22:07:18.846Z,12.48
2022-12-25T22:09:50.558Z,12.95
2022-12-25T22:12:37.772Z,12.02
2022-12-25T22:15:07.279Z,11.50
2022-12-25T22:17:55.104Z,11.70
2022-12-25T22:20:30.118Z,12.37
2022-12-25T22:22:58.152Z,11.10
2022-12-25T22:25:26.050Z,11.35
2022-12-25T22:27:53.611Z,12.43
2022-12-25T22:30:26.083Z,12.20
2022-12-25T22:32:53.837Z,10.40
2022-12-25T22:35:22.952Z,11.02
2022-12-25T22:37:50.234Z,10.55
2022-12-25T22:40:19.039Z,9.88
2022-12-25T22:42:46.292Z,11.23
2022-12-25T22:45:13.579Z,10.23
2022-12-25T22:47:41.577Z,10.57
2022-12-25T22:50:09.976Z,9.25
2022-12-25T22:52:37.523Z,9.75
2022-12-25T22:55:06.332Z,10.25
2022-12-25T22:57:33.517Z,10.25
2022-12-25T23:00:00.584Z,9.70
2022-12-25T23:02:28.279Z,8.60
2022-12-25T23:04:55.536Z,9.13
2022-12-25T23:07:22.628Z,9.30
2022-12-25T23:09:50.023Z,8.55
2022-12-25T23:12:35.972Z,8.45
2022-12-25T23:15:03.596Z,9.13
2022-12-25T23:17:49.137Z,9.50
2022-12-25T23:20:35.043Z,8.68
2022-12-25T23:23:21.055Z,8.27
2022-12-25T23:26:07.273Z,7.62
2022-12-25T23:28:57.801Z,8.05
2022-12-25T23:31:28.446Z,8.77
2022-12-25T23:33:55.547Z,8.07
2022-12-25T23:36:22.723Z,8.10
2022-12-25T23:38:50.308Z,8.65
2022-12-25T23:41:17.452Z,9.15
2022-12-25T23:43:44.524Z,9.13
2022-12-25T23:46:11.934Z,8.73
2022-12-25T23:48:39.091Z,8.73
2022-12-25T23:51:07.083Z,8.40
2022-12-25T23:53:34.779Z,8.55
2022-12-25T23:56:01.976Z,7.50
2022-12-25T23:58:29.554Z,7.62
